Time;durP1;ratioP1;P1;durP2;ratioP2;P2;SDS_P1;SDS_P2;PMS_P1;PMS_P2;Temp;Humidity;BMP_temperature;BMP_pressure;BME280_temperature;BME280_humidity;BME280_pressure;Samples;Min_cycle;Max_cycle;Signal;HPM_P1;HPM_P2
2023/03/11 00:00:24;;;;;;;17.87;10.67;;;;;;;;;;4983809;28;20497;-70
2023/03/11 00:02:52;;;;;;;17.50;11.07;;;;;;;;;;4980815;28;20239;-70
2023/03/11 00:05:20;;;;;;;17.60;11.27;;;;;;;;;;4982941;28;20565;-70
2023/03/11 00:07:47;;;;;;;14.63;9.73;;;;;;;;;;4996679;28;20458;-71
2023/03/11 00:10:14;;;;;;;16.00;10.23;;;;;;;;;;4988432;28;20537;-70
2023/03/11 00:12:41;;;;;;;16.37;9.93;;;;;;;;;;4988932;28;20533;-70
2023/03/11 00:15:07;;;;;;;12.97;7.80;;;;;;;;;;4964038;28;20556;-71
2023/03/11 00:17:34;;;;;;;12.67;8.77;;;;;;;;;;4979990;28;20477;-71
2023/03/11 00:20:03;;;;;;;12.33;8.40;;;;;;;;;;4983897;28;20547;-71
2023/03/11 00:22:29;;;;;;;11.30;7.73;;;;;;;;;;4999133;28;20518;-71
2023/03/11 00:24:56;;;;;;;14.03;8.50;;;;;;;;;;4982465;28;20537;-70
2023/03/11 00:27:22;;;;;;;12.93;8.37;;;;;;;;;;4963297;28;20502;-70
2023/03/11 00:29:49;;;;;;;13.23;8.87;;;;;;;;;;4981773;28;20529;-70
2023/03/11 00:32:15;;;;;;;14.33;9.10;;;;;;;;;;4970522;28;20460;-71
2023/03/11 00:34:42;;;;;;;11.20;8.03;;;;;;;;;;4977218;28;20818;-70
2023/03/11 00:37:09;;;;;;;11.33;7.40;;;;;;;;;;4983271;28;20493;-71
2023/03/11 00:39:35;;;;;;;9.47;6.60;;;;;;;;;;4973176;28;20479;-71
2023/03/11 00:42:02;;;;;;;9.73;7.30;;;;;;;;;;4966838;28;20451;-71
2023/03/11 00:44:29;;;;;;;14.63;8.63;;;;;;;;;;4982290;28;20512;-70
2023/03/11 00:46:56;;;;;;;12.60;7.87;;;;;;;;;;4980938;28;20462;-71
2023/03/11 00:49:22;;;;;;;12.47;8.00;;;;;;;;;;4981428;28;20460;-71
2023/03/11 00:51:49;;;;;;;10.80;8.00;;;;;;;;;;4968382;28;20527;-70
2023/03/11 00:54:16;;;;;;;13.43;8.17;;;;;;;;;;4982388;28;20463;-70
2023/03/11 00:56:42;;;;;;;11.80;8.07;;;;;;;;;;4964809;28;21026;-70
2023/03/11 00:59:10;;;;;;;12.57;9.60;;;;;;;;;;4967502;28;20463;-70
2023/03/11 01:01:37;;;;;;;12.63;8.13;;;;;;;;;;4985982;28;20463;-70
2023/03/11 01:04:03;;;;;;;12.80;9.03;;;;;;;;;;4966630;28;21014;-70
2023/03/11 01:06:30;;;;;;;12.80;8.33;;;;;;;;;;4968044;28;20562;-70
2023/03/11 01:09:10;;;;;;;10.17;6.23;;;;;;;;;;4970907;28;21076;-70
2023/03/11 01:11:37;;;;;;;10.77;6.50;;;;;;;;;;4985532;28;20471;-70
2023/03/11 01:14:04;;;;;;;11.87;7.87;;;;;;;;;;4986102;28;20601;-70
2023/03/11 01:16:30;;;;;;;8.87;6.03;;;;;;;;;;4983685;28;20827;-70
2023/03/11 01:18:57;;;;;;;11.03;7.23;;;;;;;;;;4985654;28;20629;-70
2023/03/11 01:21:42;;;;;;;9.40;6.50;;;;;;;;;;4983407;28;20454;-70
2023/03/11 01:24:08;;;;;;;11.67;7.40;;;;;;;;;;4962294;28;20460;-70
2023/03/11 01:26:36;;;;;;;10.13;6.83;;;;;;;;;;4976268;28;20521;-70
2023/03/11 01:29:03;;;;;;;10.33;6.90;;;;;;;;;;4986660;28;20470;-70
2023/03/11 01:31:30;;;;;;;9.47;6.83;;;;;;;;;;4974996;28;20464;-70
2023/03/11 01:33:56;;;;;;;13.97;8.27;;;;;;;;;;4973539;28;20470;-70
2023/03/11 01:36:25;;;;;;;12.30;8.30;;;;;;;;;;4979614;28;20487;-70
2023/03/11 01:38:51;;;;;;;10.67;6.53;;;;;;;;;;4968967;28;20467;-71
2023/03/11 01:41:36;;;;;;;12.00;6.83;;;;;;;;;;4962410;28;20471;-70
2023/03/11 02:16:29;;;;;;;10.90;7.20;;;;;;;;;;4644267;28;20483;-70
2023/03/11 02:18:56;;;;;;;11.20;7.03;;;;;;;;;;4964764;28;22990;-70
2023/03/11 02:21:25;;;;;;;13.93;6.93;;;;;;;;;;4952403;28;20459;-70
2023/03/11 02:24:10;;;;;;;12.77;7.83;;;;;;;;;;4964940;28;20459;-70
2023/03/11 02:26:57;;;;;;;8.97;6.27;;;;;;;;;;4969509;28;20546;-70
2023/03/11 02:29:25;;;;;;;8.57;6.00;;;;;;;;;;4961890;28;21180;-71
2023/03/11 02:31:52;;;;;;;11.70;7.43;;;;;;;;;;4946547;28;20476;-70
2023/03/11 02:34:23;;;;;;;11.63;6.77;;;;;;;;;;4977117;28;20464;-71
2023/03/11 02:36:50;;;;;;;7.90;5.13;;;;;;;;;;4975608;28;20471;-70
2023/03/11 02:39:47;;;;;;;10.47;6.60;;;;;;;;;;4948664;28;20562;-71
2023/03/11 02:42:16;;;;;;;12.80;6.87;;;;;;;;;;4960341;28;20455;-71
2023/03/11 02:44:43;;;;;;;8.67;6.23;;;;;;;;;;4947286;28;20557;-71
2023/03/11 02:47:10;;;;;;;10.07;5.87;;;;;;;;;;4985103;28;20493;-70
2023/03/11 02:49:37;;;;;;;8.47;5.33;;;;;;;;;;4968481;28;20966;-70
2023/03/11 02:52:04;;;;;;;9.53;5.70;;;;;;;;;;4947398;28;20447;-71
2023/03/11 02:54:31;;;;;;;7.80;5.67;;;;;;;;;;4945711;28;21002;-70
2023/03/11 02:56:58;;;;;;;9.03;5.70;;;;;;;;;;4984715;28;20481;-70
2023/03/11 02:59:26;;;;;;;6.93;4.83;;;;;;;;;;4982918;28;20465;-70
2023/03/11 03:01:54;;;;;;;9.70;6.00;;;;;;;;;;4964985;28;20587;-71
2023/03/11 03:04:21;;;;;;;7.03;4.63;;;;;;;;;;4965559;28;20526;-70
2023/03/11 03:06:48;;;;;;;7.17;5.10;;;;;;;;;;4960351;28;20466;-70
2023/03/11 03:09:15;;;;;;;11.93;5.73;;;;;;;;;;4966499;28;20565;-71
2023/03/11 03:11:43;;;;;;;8.40;4.93;;;;;;;;;;4960383;28;20460;-71
2023/03/11 03:14:10;;;;;;;7.03;5.40;;;;;;;;;;4964438;28;20463;-71
2023/03/11 03:16:37;;;;;;;7.27;5.20;;;;;;;;;;4977047;28;20554;-70
2023/03/11 03:19:03;;;;;;;8.30;5.07;;;;;;;;;;4981364;28;20974;-71
2023/03/11 03:21:30;;;;;;;8.03;5.43;;;;;;;;;;4985440;28;20471;-71
2023/03/11 03:23:57;;;;;;;10.37;5.63;;;;;;;;;;4977819;28;20538;-70
2023/03/11 03:26:24;;;;;;;8.13;5.10;;;;;;;;;;4981598;28;20533;-71
2023/03/11 03:28:51;;;;;;;10.87;5.37;;;;;;;;;;4980939;28;20459;-70
2023/03/11 03:31:17;;;;;;;10.77;5.73;;;;;;;;;;4982861;28;20474;-70
2023/03/11 03:33:44;;;;;;;8.20;5.13;;;;;;;;;;4982234;28;20952;-71
2023/03/11 03:36:12;;;;;;;8.90;5.53;;;;;;;;;;4984250;28;20814;-71
2023/03/11 03:38:53;;;;;;;7.43;5.53;;;;;;;;;;4964922;28;20459;-71
2023/03/11 03:41:20;;;;;;;9.30;5.57;;;;;;;;;;4979552;28;20889;-70
2023/03/11 03:43:48;;;;;;;5.17;3.60;;;;;;;;;;4982914;28;20501;-71
2023/03/11 03:46:15;;;;;;;9.60;6.07;;;;;;;;;;4978134;28;20553;-71
2023/03/11 03:48:45;;;;;;;7.73;5.60;;;;;;;;;;4979759;28;20451;-71
2023/03/11 03:51:12;;;;;;;9.70;5.30;;;;;;;;;;4963238;28;20527;-71
2023/03/11 03:53:45;;;;;;;8.50;4.67;;;;;;;;;;4962769;28;20460;-71
2023/03/11 03:56:13;;;;;;;9.47;5.17;;;;;;;;;;4975275;28;20474;-71
2023/03/11 03:58:41;;;;;;;8.17;4.60;;;;;;;;;;4980977;28;20459;-70
2023/03/11 04:01:08;;;;;;;7.37;4.80;;;;;;;;;;4977142;28;20823;-71
2023/03/11 04:03:35;;;;;;;6.77;4.63;;;;;;;;;;4963212;28;20479;-71
2023/03/11 04:06:36;;;;;;;8.97;5.10;;;;;;;;;;4962271;28;20471;-71
2023/03/11 04:09:05;;;;;;;9.00;4.80;;;;;;;;;;4962823;28;20464;-71
2023/03/11 04:11:33;;;;;;;5.50;4.00;;;;;;;;;;4963113;28;20456;-71
2023/03/11 04:14:01;;;;;;;6.57;4.00;;;;;;;;;;4984676;28;20475;-70
2023/03/11 04:16:30;;;;;;;6.20;3.80;;;;;;;;;;4979489;28;20463;-70
2023/03/11 04:19:04;;;;;;;8.27;3.77;;;;;;;;;;4975049;28;20462;-70
2023/03/11 04:21:32;;;;;;;5.63;3.87;;;;;;;;;;4980244;28;20498;-71
2023/03/11 04:23:59;;;;;;;8.43;4.67;;;;;;;;;;4982365;28;20459;-71
2023/03/11 04:26:31;;;;;;;6.97;4.07;;;;;;;;;;4976349;28;20457;-71
2023/03/11 04:28:58;;;;;;;4.77;3.40;;;;;;;;;;4985466;28;20574;-71
2023/03/11 04:31:30;;;;;;;5.50;3.97;;;;;;;;;;4980858;28;21001;-71
2023/03/11 04:33:59;;;;;;;6.47;4.30;;;;;;;;;;4975116;28;20454;-71
2023/03/11 04:36:26;;;;;;;5.43;3.40;;;;;;;;;;4987071;28;20461;-70
2023/03/11 04:38:54;;;;;;;5.30;3.63;;;;;;;;;;4982653;28;20459;-71
2023/03/11 04:41:21;;;;;;;8.80;3.83;;;;;;;;;;4983780;28;20439;-71
2023/03/11 04:43:48;;;;;;;7.17;4.47;;;;;;;;;;4982187;28;20553;-71
2023/03/11 04:46:15;;;;;;;5.23;3.93;;;;;;;;;;4984210;28;20451;-71
2023/03/11 04:48:42;;;;;;;10.70;4.13;;;;;;;;;;4980575;28;20882;-71
2023/03/11 04:51:08;;;;;;;5.77;4.10;;;;;;;;;;4974731;28;20478;-71
2023/03/11 04:53:35;;;;;;;8.93;4.83;;;;;;;;;;4982095;28;20463;-71
2023/03/11 04:56:02;;;;;;;8.03;4.70;;;;;;;;;;4978695;28;20563;-70
2023/03/11 04:58:30;;;;;;;7.77;4.17;;;;;;;;;;4983651;28;20467;-70
2023/03/11 05:00:56;;;;;;;5.07;3.83;;;;;;;;;;4985790;28;20455;-70
2023/03/11 05:03:23;;;;;;;6.17;4.70;;;;;;;;;;4983700;28;20457;-70
2023/03/11 05:05:55;;;;;;;7.57;4.60;;;;;;;;;;4976903;28;20252;-69
2023/03/11 05:08:22;;;;;;;8.67;5.30;;;;;;;;;;4973747;28;20865;-68
2023/03/11 05:10:50;;;;;;;8.00;4.07;;;;;;;;;;4973781;28;20557;-70
2023/03/11 05:13:17;;;;;;;5.70;3.33;;;;;;;;;;4979302;28;20894;-69
2023/03/11 05:15:45;;;;;;;9.13;5.00;;;;;;;;;;4978937;28;20466;-67
2023/03/11 05:18:12;;;;;;;8.70;4.80;;;;;;;;;;4980193;28;20818;-70
2023/03/11 05:20:40;;;;;;;7.10;3.47;;;;;;;;;;4979963;28;20520;-70
2023/03/11 05:23:08;;;;;;;10.43;4.93;;;;;;;;;;4986386;28;20582;-70
2023/03/11 05:25:36;;;;;;;8.03;5.27;;;;;;;;;;4981312;28;20831;-70
2023/03/11 05:28:03;;;;;;;7.80;4.80;;;;;;;;;;4966490;28;20459;-71
2023/03/11 05:30:33;;;;;;;7.80;5.20;;;;;;;;;;4978945;28;20950;-70
2023/03/11 05:32:59;;;;;;;7.47;4.87;;;;;;;;;;4945713;28;20466;-70
2023/03/11 05:35:26;;;;;;;9.13;4.77;;;;;;;;;;4973136;28;20460;-70
2023/03/11 05:37:55;;;;;;;8.87;5.10;;;;;;;;;;4977854;28;20467;-71
2023/03/11 05:40:25;;;;;;;8.00;4.80;;;;;;;;;;4979874;28;20464;-70
2023/03/11 05:42:52;;;;;;;7.40;5.00;;;;;;;;;;4977740;28;21034;-69
2023/03/11 05:45:19;;;;;;;8.57;5.00;;;;;;;;;;4960088;28;20472;-68
2023/03/11 05:48:04;;;;;;;11.43;6.27;;;;;;;;;;4972316;28;20448;-68
2023/03/11 05:50:33;;;;;;;9.50;5.47;;;;;;;;;;4976541;28;20493;-69
2023/03/11 05:53:01;;;;;;;9.67;5.77;;;;;;;;;;4978836;28;20480;-68
2023/03/11 05:55:29;;;;;;;9.13;5.57;;;;;;;;;;4975189;28;20471;-68
2023/03/11 05:57:56;;;;;;;8.57;5.73;;;;;;;;;;4980363;28;20577;-68
2023/03/11 06:00:23;;;;;;;7.07;4.50;;;;;;;;;;4978964;28;20491;-67
2023/03/11 06:02:51;;;;;;;11.07;5.07;;;;;;;;;;4980457;28;20487;-68
2023/03/11 06:05:18;;;;;;;7.37;4.93;;;;;;;;;;4974890;28;20868;-69
2023/03/11 06:07:47;;;;;;;7.03;4.67;;;;;;;;;;4966877;28;20540;-69
2023/03/11 06:10:14;;;;;;;8.07;5.60;;;;;;;;;;4982670;28;21008;-68
2023/03/11 06:12:41;;;;;;;8.00;5.27;;;;;;;;;;4977063;28;20483;-69
2023/03/11 06:15:14;;;;;;;8.10;4.80;;;;;;;;;;4974640;28;20471;-67
2023/03/11 06:17:41;;;;;;;10.23;5.07;;;;;;;;;;4974539;28;21189;-68
2023/03/11 06:20:09;;;;;;;10.63;5.70;;;;;;;;;;4961834;28;20554;-69
2023/03/11 06:22:36;;;;;;;9.00;5.90;;;;;;;;;;4971421;28;20510;-69
2023/03/11 06:25:06;;;;;;;8.27;5.50;;;;;;;;;;4960994;28;20476;-70
2023/03/11 06:27:35;;;;;;;8.17;6.00;;;;;;;;;;4962032;28;20817;-70
2023/03/11 06:30:03;;;;;;;8.50;6.40;;;;;;;;;;4961073;28;20459;-69
2023/03/11 06:32:36;;;;;;;10.43;6.43;;;;;;;;;;4958064;28;20463;-68
2023/03/11 06:35:04;;;;;;;10.03;5.77;;;;;;;;;;4968849;28;20463;-68
2023/03/11 06:37:34;;;;;;;10.27;6.60;;;;;;;;;;4960414;28;20466;-70
2023/03/11 06:40:01;;;;;;;12.50;5.90;;;;;;;;;;4929432;28;20502;-70
2023/03/11 06:42:27;;;;;;;6.67;4.77;;;;;;;;;;4965978;28;20993;-69
2023/03/11 06:44:56;;;;;;;8.00;4.60;;;;;;;;;;4955211;28;20471;-69
2023/03/11 06:47:23;;;;;;;7.83;4.83;;;;;;;;;;4949778;28;20848;-70
2023/03/11 06:49:50;;;;;;;8.70;4.87;;;;;;;;;;4953244;28;20483;-70
2023/03/11 06:52:17;;;;;;;5.53;3.17;;;;;;;;;;4976968;28;20474;-70
2023/03/11 06:54:44;;;;;;;6.73;4.53;;;;;;;;;;4960864;28;20537;-70
2023/03/11 06:57:12;;;;;;;8.00;3.63;;;;;;;;;;4943953;28;20554;-70
2023/03/11 06:59:39;;;;;;;8.07;5.50;;;;;;;;;;4968616;28;20838;-70
2023/03/11 07:02:09;;;;;;;6.33;3.53;;;;;;;;;;4955007;28;20789;-70
2023/03/11 07:04:35;;;;;;;5.40;3.50;;;;;;;;;;4944458;28;20509;-70
2023/03/11 07:07:02;;;;;;;11.83;6.20;;;;;;;;;;4968053;28;20961;-71
2023/03/11 07:09:29;;;;;;;8.27;4.57;;;;;;;;;;4958479;28;20511;-71
2023/03/11 07:11:55;;;;;;;7.23;4.17;;;;;;;;;;4962630;28;21311;-74
2023/03/11 07:14:28;;;;;;;6.57;4.03;;;;;;;;;;4959340;28;20466;-74
2023/03/11 07:16:55;;;;;;;8.77;4.00;;;;;;;;;;4963163;28;20468;-70
2023/03/11 07:19:47;;;;;;;4.40;2.80;;;;;;;;;;4962125;28;20463;-70
2023/03/11 07:22:14;;;;;;;5.20;3.33;;;;;;;;;;4976939;28;20877;-71
2023/03/11 07:24:46;;;;;;;6.97;2.93;;;;;;;;;;4949435;28;234186;-71
2023/03/11 07:27:12;;;;;;;6.97;4.43;;;;;;;;;;4964825;28;20457;-64
2023/03/11 07:29:39;;;;;;;5.47;3.37;;;;;;;;;;4953511;28;20478;-61
2023/03/11 07:32:06;;;;;;;6.57;3.27;;;;;;;;;;4975116;28;20463;-62
2023/03/11 07:34:34;;;;;;;4.93;3.30;;;;;;;;;;4972436;28;20462;-71
2023/03/11 07:37:00;;;;;;;5.87;3.10;;;;;;;;;;4974208;28;20462;-71
2023/03/11 07:39:27;;;;;;;9.37;4.13;;;;;;;;;;4973583;28;20853;-71
2023/03/11 07:41:53;;;;;;;17.00;8.97;;;;;;;;;;4977559;28;20474;-72
2023/03/11 07:44:20;;;;;;;16.73;9.60;;;;;;;;;;4955730;28;20800;-71
2023/03/11 07:46:48;;;;;;;13.73;8.53;;;;;;;;;;4974586;28;20466;-71
2023/03/11 07:49:14;;;;;;;10.90;6.73;;;;;;;;;;4943113;28;20489;-72
2023/03/11 07:51:42;;;;;;;6.53;4.37;;;;;;;;;;4960375;28;20558;-71
2023/03/11 07:54:10;;;;;;;12.00;7.67;;;;;;;;;;4975460;28;31949;-71
2023/03/11 07:56:37;;;;;;;8.70;4.80;;;;;;;;;;4929973;28;20464;-71
2023/03/11 07:59:04;;;;;;;10.47;6.77;;;;;;;;;;4947145;28;20477;-71
2023/03/11 08:01:35;;;;;;;9.17;4.63;;;;;;;;;;4976025;28;20487;-71
2023/03/11 08:04:03;;;;;;;20.57;11.83;;;;;;;;;;4962364;28;20486;-71
2023/03/11 08:06:30;;;;;;;11.80;7.13;;;;;;;;;;4966814;28;20491;-71
2023/03/11 08:09:00;;;;;;;16.67;10.03;;;;;;;;;;4930258;28;20492;-71
2023/03/11 08:11:28;;;;;;;25.37;14.07;;;;;;;;;;4963569;28;20838;-71
2023/03/11 08:13:56;;;;;;;11.97;6.97;;;;;;;;;;4975882;28;20444;-71
2023/03/11 08:16:23;;;;;;;37.63;22.17;;;;;;;;;;4969595;28;20488;-71
2023/03/11 08:18:50;;;;;;;8.90;4.77;;;;;;;;;;4981255;28;20469;-71
2023/03/11 08:21:18;;;;;;;6.40;3.80;;;;;;;;;;4971664;28;20454;-71
2023/03/11 08:23:47;;;;;;;14.47;8.37;;;;;;;;;;4997933;28;20490;-71
2023/03/11 08:26:15;;;;;;;19.73;12.00;;;;;;;;;;4972175;28;217463;-71
2023/03/11 08:28:42;;;;;;;29.27;17.00;;;;;;;;;;4980629;28;20662;-71
2023/03/11 08:31:12;;;;;;;9.53;5.50;;;;;;;;;;4975504;28;20468;-71
2023/03/11 08:33:39;;;;;;;10.97;6.80;;;;;;;;;;4968279;28;20546;-71
2023/03/11 08:36:06;;;;;;;10.90;5.37;;;;;;;;;;4983118;28;20456;-71
2023/03/11 08:38:33;;;;;;;12.93;7.03;;;;;;;;;;4964876;28;20468;-71
2023/03/11 08:41:00;;;;;;;27.87;14.07;;;;;;;;;;4982472;28;20462;-71
2023/03/11 08:43:27;;;;;;;12.43;6.57;;;;;;;;;;4980370;28;20992;-71
2023/03/11 08:45:54;;;;;;;8.73;5.17;;;;;;;;;;4983462;28;20473;-71
2023/03/11 08:48:22;;;;;;;21.83;9.70;;;;;;;;;;4980456;28;20466;-70
2023/03/11 08:50:49;;;;;;;62.67;28.13;;;;;;;;;;4978750;28;20463;-71
2023/03/11 08:53:20;;;;;;;16.00;7.40;;;;;;;;;;4980861;28;20987;-71
2023/03/11 08:55:48;;;;;;;8.93;4.60;;;;;;;;;;4972255;28;20485;-69
2023/03/11 08:58:15;;;;;;;21.50;11.97;;;;;;;;;;4994461;28;20459;-71
2023/03/11 09:00:42;;;;;;;14.23;7.53;;;;;;;;;;4972497;28;20525;-71
2023/03/11 09:03:08;;;;;;;42.83;20.43;;;;;;;;;;4976683;28;20267;-72
2023/03/11 09:05:35;;;;;;;10.37;5.80;;;;;;;;;;4975491;28;20475;-74
2023/03/11 09:08:03;;;;;;;9.30;5.03;;;;;;;;;;4980105;28;20538;-72
2023/03/11 09:10:31;;;;;;;9.70;6.47;;;;;;;;;;4984349;28;20455;-75
2023/03/11 09:12:58;;;;;;;9.67;6.03;;;;;;;;;;4982646;28;20460;-75
2023/03/11 09:15:24;;;;;;;10.87;6.30;;;;;;;;;;4983599;28;20463;-74
2023/03/11 09:17:54;;;;;;;25.27;13.50;;;;;;;;;;4982505;28;20464;-75
2023/03/11 09:20:21;;;;;;;6.53;3.87;;;;;;;;;;4974192;28;20455;-75
2023/03/11 09:22:48;;;;;;;5.83;4.00;;;;;;;;;;4952770;28;20456;-75
2023/03/11 09:25:15;;;;;;;10.03;6.10;;;;;;;;;;4946321;28;20528;-75
2023/03/11 09:27:42;;;;;;;9.93;5.27;;;;;;;;;;4953171;28;20566;-73
2023/03/11 09:30:12;;;;;;;6.80;4.10;;;;;;;;;;4915047;28;20458;-75
2023/03/11 09:32:39;;;;;;;16.27;7.83;;;;;;;;;;4972032;28;20566;-75
2023/03/11 09:35:06;;;;;;;21.80;11.97;;;;;;;;;;4957051;28;216879;-75
2023/03/11 09:37:33;;;;;;;25.90;11.83;;;;;;;;;;4987377;28;20464;-76
2023/03/11 09:39:59;;;;;;;10.20;6.03;;;;;;;;;;4968909;28;20538;-75
2023/03/11 09:42:45;;;;;;;16.33;8.13;;;;;;;;;;4988321;28;20455;-76
2023/03/11 09:45:29;;;;;;;14.10;7.03;;;;;;;;;;4957598;28;20447;-74
2023/03/11 09:47:56;;;;;;;17.30;9.57;;;;;;;;;;4967208;28;20470;-76
2023/03/11 09:50:33;;;;;;;14.67;8.83;;;;;;;;;;4974298;28;20486;-76
2023/03/11 09:52:59;;;;;;;20.53;11.23;;;;;;;;;;4977842;28;20516;-76
2023/03/11 09:55:31;;;;;;;7.97;5.13;;;;;;;;;;4982283;28;20472;-75
2023/03/11 09:57:59;;;;;;;8.60;4.50;;;;;;;;;;4990448;28;23926;-76
2023/03/11 10:00:26;;;;;;;4.63;2.73;;;;;;;;;;4960908;28;20458;-76
2023/03/11 10:02:53;;;;;;;5.23;2.83;;;;;;;;;;4975183;28;20455;-75
2023/03/11 10:05:20;;;;;;;4.07;3.03;;;;;;;;;;4994379;28;20828;-72
2023/03/11 10:07:50;;;;;;;4.03;2.07;;;;;;;;;;4985353;28;20543;-72
2023/03/11 10:10:17;;;;;;;3.60;2.23;;;;;;;;;;4965016;28;20850;-71
2023/03/11 10:12:44;;;;;;;3.07;2.00;;;;;;;;;;4985048;28;20463;-72
2023/03/11 10:15:26;;;;;;;13.00;7.57;;;;;;;;;;4974752;28;20682;-72
2023/03/11 10:17:59;;;;;;;3.57;2.43;;;;;;;;;;4980164;28;20461;-71
2023/03/11 10:20:33;;;;;;;4.10;2.50;;;;;;;;;;4978395;28;20458;-72
2023/03/11 10:23:03;;;;;;;6.17;3.23;;;;;;;;;;4973128;28;20464;-72
2023/03/11 10:25:32;;;;;;;4.17;2.10;;;;;;;;;;4976921;28;20445;-72
2023/03/11 10:28:12;;;;;;;6.23;3.47;;;;;;;;;;4957313;28;20474;-72
2023/03/11 10:30:42;;;;;;;6.53;3.23;;;;;;;;;;4961897;28;20922;-72
2023/03/11 10:33:21;;;;;;;5.10;2.63;;;;;;;;;;4983549;28;20463;-72
2023/03/11 10:35:52;;;;;;;5.73;3.10;;;;;;;;;;4976458;28;233063;-72
2023/03/11 10:38:27;;;;;;;4.80;2.90;;;;;;;;;;4966250;28;20465;-72
2023/03/11 10:40:55;;;;;;;5.27;2.60;;;;;;;;;;4984229;28;20466;-72
2023/03/11 10:43:30;;;;;;;5.30;3.10;;;;;;;;;;4987975;28;20472;-72
2023/03/11 10:45:57;;;;;;;5.33;3.20;;;;;;;;;;4977930;28;20541;-72
2023/03/11 10:48:24;;;;;;;3.27;2.07;;;;;;;;;;4969171;28;20467;-72
2023/03/11 10:50:54;;;;;;;5.43;3.00;;;;;;;;;;4979886;28;20826;-72
2023/03/11 10:53:21;;;;;;;8.57;4.30;;;;;;;;;;4946612;28;20452;-72
2023/03/11 10:55:48;;;;;;;7.27;3.53;;;;;;;;;;4975346;28;20457;-72
2023/03/11 10:58:16;;;;;;;9.47;5.90;;;;;;;;;;4979225;28;20483;-72
2023/03/11 11:00:43;;;;;;;4.27;2.37;;;;;;;;;;4962937;28;20487;-72
2023/03/11 11:03:20;;;;;;;4.57;2.57;;;;;;;;;;4962128;28;20488;-72
2023/03/11 11:06:06;;;;;;;4.43;2.30;;;;;;;;;;4980245;28;20515;-72
2023/03/11 11:08:33;;;;;;;5.50;3.00;;;;;;;;;;4984359;28;20474;-71
2023/03/11 11:11:01;;;;;;;10.43;5.77;;;;;;;;;;4966064;28;20467;-72
2023/03/11 11:13:29;;;;;;;7.10;4.33;;;;;;;;;;4940756;28;20468;-71
2023/03/11 11:16:00;;;;;;;5.03;3.27;;;;;;;;;;4938262;28;20274;-71
2023/03/11 11:18:31;;;;;;;6.00;4.27;;;;;;;;;;4980842;28;20454;-72
2023/03/11 11:21:05;;;;;;;7.83;5.30;;;;;;;;;;4994876;28;20529;-71
2023/03/11 11:23:36;;;;;;;6.13;3.67;;;;;;;;;;4988973;28;20461;-72
2023/03/11 11:26:04;;;;;;;8.47;4.60;;;;;;;;;;5009774;28;20949;-71
2023/03/11 11:28:32;;;;;;;7.50;4.83;;;;;;;;;;4984202;28;20907;-71
2023/03/11 11:31:05;;;;;;;17.43;8.50;;;;;;;;;;4975344;28;20223;-70
2023/03/11 11:33:34;;;;;;;14.37;7.10;;;;;;;;;;4958673;28;20950;-70
2023/03/11 11:36:01;;;;;;;7.40;3.87;;;;;;;;;;4989556;28;20458;-70
2023/03/11 11:38:29;;;;;;;17.50;9.30;;;;;;;;;;4976343;28;20540;-70
2023/03/11 11:41:00;;;;;;;9.10;4.87;;;;;;;;;;4980030;28;20462;-70
2023/03/11 11:43:33;;;;;;;5.40;2.67;;;;;;;;;;4972108;28;20455;-69
2023/03/11 11:46:01;;;;;;;6.27;3.50;;;;;;;;;;4966344;28;70611;-71
2023/03/11 11:48:48;;;;;;;7.87;3.50;;;;;;;;;;4970808;28;20458;-73
2023/03/11 11:51:17;;;;;;;8.50;4.30;;;;;;;;;;4992092;28;20464;-74
2023/03/11 11:53:55;;;;;;;22.83;13.10;;;;;;;;;;4977188;28;21394;-74
2023/03/11 11:56:25;;;;;;;16.53;9.13;;;;;;;;;;4967490;28;20465;-74
2023/03/11 11:58:53;;;;;;;16.97;9.30;;;;;;;;;;4965282;28;20469;-74
2023/03/11 12:01:23;;;;;;;6.10;2.97;;;;;;;;;;4972933;28;20491;-73
2023/03/11 12:03:56;;;;;;;4.60;2.27;;;;;;;;;;4976014;28;20463;-74
2023/03/11 12:06:46;;;;;;;4.10;2.93;;;;;;;;;;4967853;28;21022;-73
2023/03/11 12:09:13;;;;;;;5.27;3.13;;;;;;;;;;4982004;28;21413;-73
2023/03/11 12:11:40;;;;;;;5.50;3.10;;;;;;;;;;4983629;28;20470;-74
2023/03/11 12:14:13;;;;;;;4.27;1.97;;;;;;;;;;4953742;28;20451;-73
2023/03/11 12:17:06;;;;;;;2.80;2.17;;;;;;;;;;4982233;28;20833;-73
2023/03/11 12:19:38;;;;;;;4.30;2.20;;;;;;;;;;4957277;28;20825;-74
2023/03/11 12:22:23;;;;;;;3.53;2.53;;;;;;;;;;4975044;28;20951;-74
2023/03/11 12:25:08;;;;;;;4.43;2.50;;;;;;;;;;4977202;28;21307;-74
2023/03/11 12:27:41;;;;;;;4.37;2.20;;;;;;;;;;4980501;28;20451;-73
2023/03/11 12:30:15;;;;;;;7.10;4.30;;;;;;;;;;4973335;28;21040;-73
2023/03/11 12:32:58;;;;;;;5.87;3.03;;;;;;;;;;4963701;28;20552;-73
2023/03/11 12:35:26;;;;;;;3.87;2.90;;;;;;;;;;4962415;28;20562;-74
2023/03/11 12:38:12;;;;;;;5.53;2.73;;;;;;;;;;4963110;28;20459;-74
2023/03/11 12:40:41;;;;;;;5.30;2.63;;;;;;;;;;4980002;28;20455;-74
2023/03/11 12:43:24;;;;;;;6.90;3.03;;;;;;;;;;4978411;28;20606;-73
2023/03/11 12:45:52;;;;;;;9.93;4.40;;;;;;;;;;4951975;28;20467;-72
2023/03/11 12:48:37;;;;;;;8.63;4.70;;;;;;;;;;4977532;28;20464;-74
2023/03/11 12:51:04;;;;;;;6.43;3.70;;;;;;;;;;4971023;28;20470;-75
2023/03/11 12:53:41;;;;;;;6.33;3.83;;;;;;;;;;4951398;28;20986;-75
2023/03/11 12:56:23;;;;;;;6.13;3.37;;;;;;;;;;4964106;28;20455;-75
2023/03/11 12:58:53;;;;;;;7.27;3.40;;;;;;;;;;4956326;28;20542;-75
2023/03/11 13:01:25;;;;;;;5.03;2.80;;;;;;;;;;4968396;28;215598;-75
2023/03/11 13:04:03;;;;;;;3.57;1.63;;;;;;;;;;4963398;28;20455;-76
2023/03/11 13:06:42;;;;;;;2.83;1.67;;;;;;;;;;4981392;28;20454;-71
2023/03/11 13:09:12;;;;;;;2.80;1.50;;;;;;;;;;4968725;28;241005;-72
2023/03/11 13:11:46;;;;;;;3.37;1.57;;;;;;;;;;4964170;28;20456;-72
2023/03/11 13:14:13;;;;;;;3.30;1.57;;;;;;;;;;4968754;28;20469;-72
2023/03/11 13:16:40;;;;;;;3.00;1.70;;;;;;;;;;4953203;28;21486;-71
2023/03/11 13:19:34;;;;;;;4.50;2.10;;;;;;;;;;4940936;28;21276;-71
2023/03/11 13:22:03;;;;;;;3.90;1.80;;;;;;;;;;4945835;28;20841;-72
2023/03/11 13:24:30;;;;;;;4.20;2.00;;;;;;;;;;4981201;28;20463;-72
2023/03/11 13:27:05;;;;;;;6.13;3.13;;;;;;;;;;4983532;28;20473;-71
2023/03/11 13:29:45;;;;;;;5.10;1.97;;;;;;;;;;4979712;28;20458;-69
2023/03/11 13:32:24;;;;;;;5.93;3.20;;;;;;;;;;4986458;28;20477;-70
2023/03/11 13:35:09;;;;;;;7.30;2.90;;;;;;;;;;4979512;28;21014;-71
2023/03/11 13:37:48;;;;;;;4.60;2.67;;;;;;;;;;4984569;28;20986;-70
2023/03/11 13:40:37;;;;;;;6.10;2.93;;;;;;;;;;4985261;28;21039;-70
2023/03/11 13:43:04;;;;;;;7.47;4.40;;;;;;;;;;4985859;28;20447;-70
2023/03/11 13:45:36;;;;;;;8.20;4.53;;;;;;;;;;4974587;28;20468;-70
2023/03/11 13:48:18;;;;;;;3.97;2.17;;;;;;;;;;4977480;28;20239;-70
2023/03/11 13:50:50;;;;;;;5.43;2.47;;;;;;;;;;4959782;28;20470;-70
2023/03/11 13:53:18;;;;;;;11.30;5.67;;;;;;;;;;4946900;28;20796;-70
2023/03/11 13:55:45;;;;;;;15.57;8.03;;;;;;;;;;4955761;28;20470;-70
2023/03/11 13:58:16;;;;;;;5.83;3.17;;;;;;;;;;4985800;28;20465;-70
2023/03/11 14:00:46;;;;;;;13.30;6.70;;;;;;;;;;4965605;28;20463;-71
2023/03/11 14:03:12;;;;;;;8.80;4.33;;;;;;;;;;4966315;28;20457;-70
2023/03/11 14:05:42;;;;;;;5.33;2.80;;;;;;;;;;4964915;28;20468;-70
2023/03/11 14:08:29;;;;;;;3.97;2.10;;;;;;;;;;4976290;28;20530;-70
2023/03/11 14:10:56;;;;;;;4.50;2.40;;;;;;;;;;4982307;28;20991;-70
2023/03/11 14:13:24;;;;;;;5.23;2.37;;;;;;;;;;4983436;28;20232;-70
2023/03/11 14:15:53;;;;;;;4.33;2.57;;;;;;;;;;4981546;28;20470;-71
2023/03/11 14:18:28;;;;;;;6.40;3.57;;;;;;;;;;4980674;28;20467;-70
2023/03/11 14:20:55;;;;;;;6.57;4.00;;;;;;;;;;4984250;28;20553;-70
2023/03/11 14:23:21;;;;;;;3.60;2.37;;;;;;;;;;4989108;28;22757;-70
2023/03/11 14:25:56;;;;;;;6.40;3.93;;;;;;;;;;4958114;28;20459;-70
2023/03/11 14:28:23;;;;;;;5.80;2.87;;;;;;;;;;4988346;28;20456;-71
2023/03/11 14:30:56;;;;;;;2.93;2.00;;;;;;;;;;4971075;28;20530;-71
2023/03/11 14:33:23;;;;;;;2.03;1.50;;;;;;;;;;4982301;28;20551;-70
2023/03/11 14:36:00;;;;;;;4.43;2.10;;;;;;;;;;4982729;28;20224;-70
2023/03/11 14:38:28;;;;;;;4.40;2.13;;;;;;;;;;4966322;28;20470;-70
2023/03/11 14:40:59;;;;;;;5.77;3.10;;;;;;;;;;4983002;28;21055;-71
2023/03/11 14:43:26;;;;;;;6.63;3.40;;;;;;;;;;4981637;28;20451;-71
2023/03/11 14:46:15;;;;;;;4.57;2.53;;;;;;;;;;4958844;28;20857;-71
2023/03/11 14:48:43;;;;;;;5.23;3.37;;;;;;;;;;4981564;28;20810;-71
2023/03/11 14:51:12;;;;;;;1.60;1.00;;;;;;;;;;4978640;28;20514;-71
2023/03/11 14:53:45;;;;;;;5.43;2.60;;;;;;;;;;4964196;28;20451;-71
2023/03/11 14:56:13;;;;;;;2.63;1.77;;;;;;;;;;4980248;28;20467;-71
2023/03/11 14:58:53;;;;;;;8.07;4.67;;;;;;;;;;4982648;28;20467;-71
2023/03/11 15:01:35;;;;;;;3.30;1.50;;;;;;;;;;4966707;28;20455;-71
2023/03/11 15:04:07;;;;;;;15.80;8.53;;;;;;;;;;4968335;28;21168;-71
2023/03/11 15:06:34;;;;;;;4.87;2.33;;;;;;;;;;4960946;28;20466;-71
2023/03/11 15:09:11;;;;;;;9.53;5.30;;;;;;;;;;4967062;28;21208;-71
2023/03/11 15:11:47;;;;;;;15.80;8.03;;;;;;;;;;4914805;28;20536;-71
2023/03/11 15:14:21;;;;;;;4.00;1.50;;;;;;;;;;4930958;28;20476;-71
2023/03/11 15:16:47;;;;;;;5.63;2.73;;;;;;;;;;4957746;28;20464;-71
2023/03/11 15:19:26;;;;;;;13.67;5.97;;;;;;;;;;4983667;28;20818;-71
2023/03/11 15:21:57;;;;;;;13.37;6.07;;;;;;;;;;4985009;28;20468;-71
2023/03/11 15:24:30;;;;;;;8.73;3.10;;;;;;;;;;4980384;28;20462;-71
2023/03/11 15:27:00;;;;;;;6.73;3.73;;;;;;;;;;4999063;28;20454;-71